createdAt,value
2022-08-07T00:02:41.355Z,12.83
2022-08-07T00:07:58.479Z,12.65
2022-08-07T00:13:23.465Z,12.49
2022-08-07T00:18:34.895Z,12.41
2022-08-07T00:23:54.379Z,12.29
2022-08-07T00:32:28.305Z,12.18
2022-08-07T00:45:21.322Z,12.02
2022-08-07T00:50:50.218Z,12.05
2022-08-07T00:56:00.954Z,12.07
2022-08-07T01:01:07.278Z,12.18
2022-08-07T01:06:26.885Z,12.04
2022-08-07T01:12:05.117Z,11.77
2022-08-07T01:17:16.764Z,11.9
2022-08-07T01:22:29.263Z,11.89
2022-08-07T01:27:55.878Z,11.83
2022-08-07T01:33:04.351Z,11.81
2022-08-07T01:38:25.296Z,11.74
2022-08-07T01:43:42.348Z,11.56
2022-08-07T01:56:32.719Z,11.39
2022-08-07T01:59:39.994Z,11.39
2022-08-07T02:04:59.137Z,11.23
2022-08-07T02:10:18.280Z,11.07
2022-08-07T02:15:37.207Z,10.91
2022-08-07T02:20:57.413Z,10.7
2022-08-07T02:26:32.175Z,10.43
2022-08-07T02:31:44.801Z,10.36
2022-08-07T02:36:54.396Z,10.44
2022-08-07T02:42:14.630Z,10.34
2022-08-07T02:47:35.030Z,10.3
2022-08-07T02:52:53.143Z,10.22
2022-08-07T02:58:12.016Z,10.12
2022-08-07T03:03:42.321Z,9.89
2022-08-07T03:08:50.623Z,9.83
2022-08-07T03:14:09.632Z,9.68
2022-08-07T03:22:42.715Z,9.54
2022-08-07T03:30:06.941Z,9.63
2022-08-07T03:35:26.306Z,9.78
2022-08-07T03:40:45.548Z,9.75
2022-08-07T03:46:18.348Z,9.77
2022-08-07T03:51:23.424Z,9.71
2022-08-07T03:56:42.630Z,9.58
2022-08-07T04:02:02.123Z,9.55
2022-08-07T04:07:22.789Z,9.57
2022-08-07T04:12:40.484Z,9.47
2022-08-07T04:18:11.321Z,9.28
2022-08-07T04:23:19.247Z,9.27
2022-08-07T04:28:37.739Z,9.24
2022-08-07T04:33:56.993Z,9.21
2022-08-07T04:39:27.143Z,9.2
2022-08-07T04:44:35.618Z,9.22
2022-08-07T04:49:57.641Z,9.27
2022-08-07T04:55:15.154Z,9.37
2022-08-07T05:00:33.641Z,9.45
2022-08-07T05:05:54.723Z,9.51
2022-08-07T05:11:12.035Z,9.62
2022-08-07T05:16:31.271Z,10.34
2022-08-07T05:22:01.905Z,11.29
2022-08-07T05:30:35.421Z,12.04
2022-08-07T05:34:51.950Z,12.69
2022-08-07T05:43:12.983Z,13.24
2022-08-07T05:48:26.845Z,13.75
2022-08-07T05:54:09.109Z,13.88
2022-08-07T05:59:05.479Z,14.12
2022-08-07T06:04:35.681Z,14.4
2022-08-07T06:09:45.211Z,14.73
2022-08-07T06:15:05.459Z,15.01
2022-08-07T06:20:25.351Z,15.36
2022-08-07T06:25:41.194Z,16
2022-08-07T06:30:59.978Z,16.57
2022-08-07T06:36:27.599Z,17.02
2022-08-07T06:42:01.316Z,17.37
2022-08-07T06:50:10.860Z,17.79
2022-08-07T07:00:10.635Z,18.5
2022-08-07T07:03:01.053Z,18.79
2022-08-07T07:08:18.345Z,18.93
2022-08-07T07:13:43.601Z,19.45
2022-08-07T07:18:51.922Z,19.82
2022-08-07T07:24:12.467Z,19.71
2022-08-07T07:29:40.821Z,20.04
2022-08-07T07:34:49.490Z,20.52
2022-08-07T07:40:10.094Z,20.88
2022-08-07T07:46:36.196Z,20.75
2022-08-07T07:50:47.507Z,20.99
2022-08-07T07:56:06.160Z,21.56
2022-08-07T08:02:01.446Z,21.77
2022-08-07T08:10:05.200Z,22.07
2022-08-07T08:14:15.029Z,22.48
2022-08-07T08:22:54.407Z,23.13
2022-08-07T08:28:02.038Z,23.74
2022-08-07T08:33:18.965Z,23.93
2022-08-07T08:41:56.643Z,23.74
2022-08-07T08:43:59.247Z,23.71
2022-08-07T08:49:16.429Z,23.76
2022-08-07T08:54:35.553Z,23.98
2022-08-07T08:59:54.975Z,24.39
2022-08-07T09:05:14.816Z,24.49
2022-08-07T09:10:33.663Z,24.37
2022-08-07T09:19:07.091Z,24.65
2022-08-07T09:21:13.699Z,25.01
2022-08-07T09:31:50.430Z,24.94
2022-08-07T09:37:09.510Z,25.32
2022-08-07T09:47:26.541Z,25.32
2022-08-07T09:47:52.857Z,24.95
2022-08-07T09:53:07.832Z,24.96
2022-08-07T09:58:32.086Z,24.99
2022-08-07T10:06:59.733Z,25.62
2022-08-07T10:15:32.826Z,25.66
2022-08-07T10:19:42.818Z,25.72
2022-08-07T10:25:02.181Z,26.11
2022-08-07T10:34:05.314Z,25.79
2022-08-07T10:38:00.767Z,25.66
2022-08-07T10:38:21.417Z,25.5
2022-08-07T10:43:38.298Z,25.89
2022-08-07T10:52:13.051Z,25.86
2022-08-07T10:59:37.205Z,26.08
2022-08-07T11:04:55.507Z,26.67
2022-08-07T11:10:14.913Z,26.14
2022-08-07T11:15:33.760Z,26.23
2022-08-07T11:20:52.897Z,26.23
2022-08-07T11:29:41.619Z,26.51
2022-08-07T11:38:09.893Z,26.89
2022-08-07T11:42:11.810Z,26.92
2022-08-07T11:47:38.767Z,27.33
2022-08-07T11:52:48.117Z,27.23
2022-08-07T11:58:12.563Z,27.13
2022-08-07T12:03:41.122Z,26.79
2022-08-07T12:08:46.364Z,26.98
2022-08-07T12:14:05.349Z,27.23
2022-08-07T12:19:24.664Z,26.96
2022-08-07T12:24:43.953Z,27.04
2022-08-07T12:30:03.533Z,27.27
2022-08-07T12:35:24.015Z,27.68
2022-08-07T12:40:46.980Z,28.05
2022-08-07T12:46:01.171Z,27.84
2022-08-07T12:51:19.769Z,27.62
2022-08-07T12:56:39.424Z,27.54
2022-08-07T13:01:58.803Z,27.46
2022-08-07T13:08:11.763Z,27.64
2022-08-07T13:15:51.933Z,28.48
2022-08-07T13:17:57.909Z,28.81
2022-08-07T13:24:00.253Z,28.59
2022-08-07T13:28:34.075Z,28.97
2022-08-07T13:34:14.955Z,29.2
2022-08-07T13:42:39.329Z,29.17
2022-08-07T13:46:49.176Z,29.21
2022-08-07T13:50:35.954Z,29.25
2022-08-07T13:55:10.863Z,29.08
2022-08-07T14:00:28.553Z,29.08
2022-08-07T14:05:49.282Z,29
2022-08-07T14:11:15.077Z,29.01
2022-08-07T14:16:27.276Z,28.97
2022-08-07T14:22:02.791Z,28.89
2022-08-07T14:27:16.356Z,28.93
2022-08-07T14:32:24.846Z,29.15
2022-08-07T14:37:42.708Z,29.38
2022-08-07T14:43:55.003Z,29.28
2022-08-07T14:48:21.287Z,29.61
2022-08-07T14:53:49.865Z,29.21
2022-08-07T14:58:59.699Z,29.03
2022-08-07T15:04:18.568Z,29.31
2022-08-07T15:09:58.575Z,29.45
2022-08-07T15:20:32.207Z,29.11
2022-08-07T15:25:36.571Z,29.01
2022-08-07T15:30:59.727Z,29.07
2022-08-07T15:39:27.970Z,29.14
2022-08-07T15:42:42.809Z,29.42
2022-08-07T15:52:12.084Z,29.61
2022-08-07T15:57:40.427Z,29.51
2022-08-07T16:02:48.936Z,29.12
2022-08-07T16:08:29.514Z,29.06
2022-08-07T16:13:39.647Z,28.91
2022-08-07T16:18:50.189Z,28.94
2022-08-07T16:24:09.052Z,28.87
2022-08-07T16:30:09.409Z,28.86
2022-08-07T16:34:45.247Z,29.04
2022-08-07T16:40:03.115Z,29.08
2022-08-07T16:50:48.348Z,28.71
2022-08-07T16:56:00.012Z,28.39
2022-08-07T17:01:19.047Z,28.19
2022-08-07T17:06:44.367Z,28.06
2022-08-07T17:12:33.684Z,27.81
2022-08-07T17:20:31.037Z,27.49
2022-08-07T17:22:36.739Z,27.41
2022-08-07T17:34:10.665Z,26.82
2022-08-07T17:42:01.306Z,26.49
2022-08-07T17:44:02.102Z,26.34
2022-08-07T17:49:11.172Z,26.13
2022-08-07T17:54:54.240Z,25.87
2022-08-07T17:59:50.479Z,25.65
2022-08-07T18:05:21.107Z,25.25
2022-08-07T18:10:28.689Z,24.95
2022-08-07T18:15:51.795Z,24.68
2022-08-07T18:26:26.352Z,24.01
2022-08-07T18:31:49.994Z,23.72
2022-08-07T18:37:09.495Z,23.38
2022-08-07T18:42:27.574Z,22.99
2022-08-07T18:47:44.644Z,22.6
2022-08-07T18:53:04.905Z,22.36
2022-08-07T18:58:20.585Z,21.8
2022-08-07T19:03:39.961Z,21.37
2022-08-07T19:08:59.004Z,21.05
2022-08-07T19:14:20.172Z,20.85
2022-08-07T19:19:46.776Z,20.55
2022-08-07T19:24:56.012Z,20.23
2022-08-07T19:30:59.173Z,19.96
2022-08-07T19:35:34.804Z,19.79
2022-08-07T19:40:53.688Z,19.77
2022-08-07T19:46:12.478Z,19.66
2022-08-07T19:51:51.456Z,19.68
2022-08-07T19:57:51.124Z,19.54
2022-08-07T20:05:24.023Z,19.17
2022-08-07T20:07:45.732Z,18.64
2022-08-07T20:18:14.822Z,18.21
2022-08-07T20:23:40.605Z,18.06
2022-08-07T20:28:45.906Z,17.78
2022-08-07T20:34:05.414Z,17.7
2022-08-07T20:39:31.210Z,17.5
2022-08-07T20:44:45.389Z,17.26
2022-08-07T20:50:03.167Z,17.17
2022-08-07T20:55:35.772Z,17.23
2022-08-07T21:00:42.721Z,17.12
2022-08-07T21:05:59.983Z,16.93
2022-08-07T21:11:22.075Z,16.75
2022-08-07T21:16:38.013Z,16.51
2022-08-07T21:22:09.311Z,16.34
2022-08-07T21:30:30.385Z,16.04
2022-08-07T21:32:43.511Z,15.93
2022-08-07T21:43:14.505Z,15.62
2022-08-07T21:48:36.359Z,15.43
2022-08-07T21:54:05.589Z,15.14
2022-08-07T21:59:14.214Z,14.9
2022-08-07T22:04:42.047Z,14.85
2022-08-07T22:10:01.364Z,14.64
2022-08-07T22:16:35.469Z,14.61
2022-08-07T22:20:42.243Z,14.46
2022-08-07T22:29:02.795Z,14.28
2022-08-07T22:36:38.381Z,14.2
2022-08-07T22:42:02.953Z,13.92
2022-08-07T22:47:16.917Z,13.82
2022-08-07T22:52:36.513Z,13.77
2022-08-07T22:57:43.644Z,13.62
2022-08-07T23:03:02.677Z,13.44
2022-08-07T23:12:38.677Z,13.28
2022-08-07T23:13:48.255Z,13.04
2022-08-07T23:24:19.997Z,13
2022-08-07T23:35:00.997Z,12.99
2022-08-07T23:40:18.246Z,12.92
2022-08-07T23:45:50.211Z,12.82
2022-08-07T23:50:56.145Z,12.66
2022-08-07T23:56:15.115Z,12.44
